sensor_id;sensor_type;location;lat;lon;timestamp;P1;durP1;ratioP1;P2;durP2;ratioP2
53801;SDS011;39709;53.334;6.534;2023-03-01T00:01:08;22.25;;;11.80;;
53801;SDS011;39709;53.334;6.534;2023-03-01T00:03:38;25.35;;;12.50;;
53801;SDS011;39709;53.334;6.534;2023-03-01T00:06:04;23.73;;;12.57;;
53801;SDS011;39709;53.334;6.534;2023-03-01T00:08:31;26.75;;;13.93;;
53801;SDS011;39709;53.334;6.534;2023-03-01T00:11:17;26.27;;;14.13;;
53801;SDS011;39709;53.334;6.534;2023-03-01T00:13:43;26.83;;;13.93;;
53801;SDS011;39709;53.334;6.534;2023-03-01T00:16:12;27.30;;;12.73;;
53801;SDS011;39709;53.334;6.534;2023-03-01T00:19:05;24.70;;;13.33;;
53801;SDS011;39709;53.334;6.534;2023-03-01T00:21:33;27.88;;;12.82;;
53801;SDS011;39709;53.334;6.534;2023-03-01T00:24:00;22.67;;;12.27;;
53801;SDS011;39709;53.334;6.534;2023-03-01T00:26:26;24.92;;;13.02;;
53801;SDS011;39709;53.334;6.534;2023-03-01T00:28:53;24.92;;;13.13;;
53801;SDS011;39709;53.334;6.534;2023-03-01T00:31:24;28.13;;;13.55;;
53801;SDS011;39709;53.334;6.534;2023-03-01T00:33:52;22.65;;;12.50;;
53801;SDS011;39709;53.334;6.534;2023-03-01T00:36:22;26.00;;;13.10;;
53801;SDS011;39709;53.334;6.534;2023-03-01T00:38:59;26.77;;;12.75;;
53801;SDS011;39709;53.334;6.534;2023-03-01T00:41:26;27.80;;;12.60;;
53801;SDS011;39709;53.334;6.534;2023-03-01T00:43:52;35.97;;;15.50;;
53801;SDS011;39709;53.334;6.534;2023-03-01T00:46:20;28.80;;;14.30;;
53801;SDS011;39709;53.334;6.534;2023-03-01T00:48:47;33.92;;;14.90;;
53801;SDS011;39709;53.334;6.534;2023-03-01T00:51:14;30.80;;;14.88;;
53801;SDS011;39709;53.334;6.534;2023-03-01T00:53:41;37.13;;;15.85;;
53801;SDS011;39709;53.334;6.534;2023-03-01T00:56:09;117.80;;;19.43;;
53801;SDS011;39709;53.334;6.534;2023-03-01T00:58:36;73.45;;;17.92;;
53801;SDS011;39709;53.334;6.534;2023-03-01T01:01:12;57.38;;;17.02;;
53801;SDS011;39709;53.334;6.534;2023-03-01T01:03:52;89.22;;;17.13;;
53801;SDS011;39709;53.334;6.534;2023-03-01T01:06:27;67.93;;;18.13;;
53801;SDS011;39709;53.334;6.534;2023-03-01T01:08:55;64.53;;;17.63;;
53801;SDS011;39709;53.334;6.534;2023-03-01T01:11:21;58.13;;;16.67;;
53801;SDS011;39709;53.334;6.534;2023-03-01T01:13:48;65.70;;;16.73;;
53801;SDS011;39709;53.334;6.534;2023-03-01T01:16:15;106.05;;;16.67;;
53801;SDS011;39709;53.334;6.534;2023-03-01T01:18:42;110.77;;;18.57;;
53801;SDS011;39709;53.334;6.534;2023-03-01T01:21:09;71.60;;;16.00;;
53801;SDS011;39709;53.334;6.534;2023-03-01T01:23:37;67.10;;;16.65;;
53801;SDS011;39709;53.334;6.534;2023-03-01T01:26:05;73.28;;;16.25;;
53801;SDS011;39709;53.334;6.534;2023-03-01T01:28:32;86.82;;;16.85;;
53801;SDS011;39709;53.334;6.534;2023-03-01T01:30:57;83.03;;;14.67;;
53801;SDS011;39709;53.334;6.534;2023-03-01T01:33:23;78.20;;;16.13;;
53801;SDS011;39709;53.334;6.534;2023-03-01T01:35:49;94.90;;;17.73;;
53801;SDS011;39709;53.334;6.534;2023-03-01T01:38:15;83.18;;;16.42;;
53801;SDS011;39709;53.334;6.534;2023-03-01T01:40:47;90.73;;;16.30;;
53801;SDS011;39709;53.334;6.534;2023-03-01T01:43:48;101.63;;;16.58;;
53801;SDS011;39709;53.334;6.534;2023-03-01T01:48:55;56.83;;;15.70;;
53801;SDS011;39709;53.334;6.534;2023-03-01T01:51:31;45.40;;;15.50;;
53801;SDS011;39709;53.334;6.534;2023-03-01T01:54:05;52.00;;;16.23;;
53801;SDS011;39709;53.334;6.534;2023-03-01T01:56:37;58.35;;;17.40;;
53801;SDS011;39709;53.334;6.534;2023-03-01T01:59:07;67.55;;;17.23;;
53801;SDS011;39709;53.334;6.534;2023-03-01T02:01:33;61.88;;;16.52;;
53801;SDS011;39709;53.334;6.534;2023-03-01T02:03:59;102.63;;;18.63;;
53801;SDS011;39709;53.334;6.534;2023-03-01T02:06:32;88.68;;;16.67;;
53801;SDS011;39709;53.334;6.534;2023-03-01T02:09:05;80.23;;;18.53;;
53801;SDS011;39709;53.334;6.534;2023-03-01T02:11:35;49.65;;;15.48;;
53801;SDS011;39709;53.334;6.534;2023-03-01T02:14:02;59.40;;;15.73;;
53801;SDS011;39709;53.334;6.534;2023-03-01T02:16:28;73.20;;;16.23;;
53801;SDS011;39709;53.334;6.534;2023-03-01T02:18:56;55.22;;;15.30;;
53801;SDS011;39709;53.334;6.534;2023-03-01T02:24:17;54.42;;;15.05;;
53801;SDS011;39709;53.334;6.534;2023-03-01T02:26:54;40.45;;;15.30;;
53801;SDS011;39709;53.334;6.534;2023-03-01T02:29:22;61.90;;;15.57;;
53801;SDS011;39709;53.334;6.534;2023-03-01T02:31:49;54.25;;;13.85;;
53801;SDS011;39709;53.334;6.534;2023-03-01T02:34:19;89.77;;;15.47;;
53801;SDS011;39709;53.334;6.534;2023-03-01T02:36:47;54.80;;;14.80;;
53801;SDS011;39709;53.334;6.534;2023-03-01T02:39:26;50.63;;;13.07;;
53801;SDS011;39709;53.334;6.534;2023-03-01T02:41:57;44.58;;;12.50;;
53801;SDS011;39709;53.334;6.534;2023-03-01T02:44:25;45.63;;;12.60;;
53801;SDS011;39709;53.334;6.534;2023-03-01T02:46:51;55.10;;;12.30;;
53801;SDS011;39709;53.334;6.534;2023-03-01T02:49:26;60.67;;;12.23;;
53801;SDS011;39709;53.334;6.534;2023-03-01T02:55:06;68.40;;;11.90;;
53801;SDS011;39709;53.334;6.534;2023-03-01T02:57:35;51.20;;;11.57;;
53801;SDS011;39709;53.334;6.534;2023-03-01T03:00:09;54.95;;;12.25;;
53801;SDS011;39709;53.334;6.534;2023-03-01T03:02:44;67.15;;;12.52;;
53801;SDS011;39709;53.334;6.534;2023-03-01T03:05:35;35.85;;;11.77;;
53801;SDS011;39709;53.334;6.534;2023-03-01T03:08:01;39.83;;;12.00;;
53801;SDS011;39709;53.334;6.534;2023-03-01T03:10:28;31.67;;;10.93;;
53801;SDS011;39709;53.334;6.534;2023-03-01T03:13:00;36.42;;;11.77;;
53801;SDS011;39709;53.334;6.534;2023-03-01T03:15:32;43.05;;;11.90;;
53801;SDS011;39709;53.334;6.534;2023-03-01T03:18:02;92.13;;;12.50;;
53801;SDS011;39709;53.334;6.534;2023-03-01T03:20:29;28.65;;;10.25;;
53801;SDS011;39709;53.334;6.534;2023-03-01T03:22:56;36.67;;;11.20;;
53801;SDS011;39709;53.334;6.534;2023-03-01T03:25:26;33.97;;;10.52;;
53801;SDS011;39709;53.334;6.534;2023-03-01T03:27:53;26.17;;;9.20;;
53801;SDS011;39709;53.334;6.534;2023-03-01T03:30:32;22.73;;;9.15;;
53801;SDS011;39709;53.334;6.534;2023-03-01T03:32:58;29.73;;;9.37;;
53801;SDS011;39709;53.334;6.534;2023-03-01T03:35:28;28.33;;;9.52;;
53801;SDS011;39709;53.334;6.534;2023-03-01T03:37:56;34.88;;;10.95;;
53801;SDS011;39709;53.334;6.534;2023-03-01T03:40:27;31.92;;;9.98;;
53801;SDS011;39709;53.334;6.534;2023-03-01T03:43:11;38.53;;;9.60;;
53801;SDS011;39709;53.334;6.534;2023-03-01T03:45:38;49.93;;;10.27;;
53801;SDS011;39709;53.334;6.534;2023-03-01T03:48:05;44.15;;;10.65;;
53801;SDS011;39709;53.334;6.534;2023-03-01T03:50:32;30.80;;;9.40;;
53801;SDS011;39709;53.334;6.534;2023-03-01T03:53:00;33.13;;;9.93;;
53801;SDS011;39709;53.334;6.534;2023-03-01T03:55:26;30.38;;;9.85;;
53801;SDS011;39709;53.334;6.534;2023-03-01T03:57:56;30.75;;;9.90;;
53801;SDS011;39709;53.334;6.534;2023-03-01T04:00:23;49.72;;;10.15;;
53801;SDS011;39709;53.334;6.534;2023-03-01T04:02:49;56.08;;;10.27;;
53801;SDS011;39709;53.334;6.534;2023-03-01T04:05:16;43.50;;;10.07;;
53801;SDS011;39709;53.334;6.534;2023-03-01T04:07:43;29.80;;;9.40;;
53801;SDS011;39709;53.334;6.534;2023-03-01T04:10:14;29.95;;;9.15;;
53801;SDS011;39709;53.334;6.534;2023-03-01T04:12:41;25.65;;;8.65;;
53801;SDS011;39709;53.334;6.534;2023-03-01T04:15:08;24.80;;;9.20;;
53801;SDS011;39709;53.334;6.534;2023-03-01T04:17:44;24.23;;;8.77;;
53801;SDS011;39709;53.334;6.534;2023-03-01T04:20:12;24.98;;;9.73;;
53801;SDS011;39709;53.334;6.534;2023-03-01T04:22:42;22.75;;;8.32;;
53801;SDS011;39709;53.334;6.534;2023-03-01T04:25:12;18.80;;;8.77;;
53801;SDS011;39709;53.334;6.534;2023-03-01T04:27:39;19.83;;;8.13;;
53801;SDS011;39709;53.334;6.534;2023-03-01T04:30:05;17.33;;;8.47;;
53801;SDS011;39709;53.334;6.534;2023-03-01T04:32:32;16.98;;;8.20;;
53801;SDS011;39709;53.334;6.534;2023-03-01T04:34:57;15.55;;;7.93;;
53801;SDS011;39709;53.334;6.534;2023-03-01T04:37:23;37.40;;;8.73;;
53801;SDS011;39709;53.334;6.534;2023-03-01T04:39:49;74.93;;;10.68;;
53801;SDS011;39709;53.334;6.534;2023-03-01T04:42:15;71.10;;;10.20;;
53801;SDS011;39709;53.334;6.534;2023-03-01T04:44:42;38.40;;;9.63;;
53801;SDS011;39709;53.334;6.534;2023-03-01T04:47:08;23.73;;;9.35;;
53801;SDS011;39709;53.334;6.534;2023-03-01T04:49:34;21.13;;;8.90;;
53801;SDS011;39709;53.334;6.534;2023-03-01T04:51:59;18.23;;;8.73;;
53801;SDS011;39709;53.334;6.534;2023-03-01T04:54:27;17.67;;;9.20;;
53801;SDS011;39709;53.334;6.534;2023-03-01T04:56:54;19.75;;;7.63;;
53801;SDS011;39709;53.334;6.534;2023-03-01T04:59:19;16.10;;;8.40;;
53801;SDS011;39709;53.334;6.534;2023-03-01T05:01:48;14.95;;;7.53;;
53801;SDS011;39709;53.334;6.534;2023-03-01T05:04:14;14.23;;;7.50;;
53801;SDS011;39709;53.334;6.534;2023-03-01T05:06:40;13.80;;;7.18;;
53801;SDS011;39709;53.334;6.534;2023-03-01T05:09:05;13.90;;;7.33;;
53801;SDS011;39709;53.334;6.534;2023-03-01T05:11:31;14.23;;;7.53;;
53801;SDS011;39709;53.334;6.534;2023-03-01T05:14:01;13.15;;;7.18;;
53801;SDS011;39709;53.334;6.534;2023-03-01T05:16:27;12.77;;;6.87;;
53801;SDS011;39709;53.334;6.534;2023-03-01T05:18:53;14.50;;;7.65;;
53801;SDS011;39709;53.334;6.534;2023-03-01T05:21:20;13.07;;;6.82;;
53801;SDS011;39709;53.334;6.534;2023-03-01T05:23:46;13.55;;;6.88;;
53801;SDS011;39709;53.334;6.534;2023-03-01T05:26:12;14.20;;;7.13;;
53801;SDS011;39709;53.334;6.534;2023-03-01T05:28:38;15.18;;;7.50;;
53801;SDS011;39709;53.334;6.534;2023-03-01T05:31:05;14.65;;;7.05;;
53801;SDS011;39709;53.334;6.534;2023-03-01T05:33:38;16.42;;;7.65;;
53801;SDS011;39709;53.334;6.534;2023-03-01T05:36:05;15.27;;;7.90;;
53801;SDS011;39709;53.334;6.534;2023-03-01T05:38:32;15.77;;;7.43;;
53801;SDS011;39709;53.334;6.534;2023-03-01T05:40:58;15.75;;;7.30;;
53801;SDS011;39709;53.334;6.534;2023-03-01T05:43:24;15.80;;;7.47;;
53801;SDS011;39709;53.334;6.534;2023-03-01T05:45:50;18.13;;;8.15;;
53801;SDS011;39709;53.334;6.534;2023-03-01T05:48:16;16.37;;;8.03;;
53801;SDS011;39709;53.334;6.534;2023-03-01T05:50:45;16.40;;;7.68;;
53801;SDS011;39709;53.334;6.534;2023-03-01T05:53:16;16.17;;;8.05;;
53801;SDS011;39709;53.334;6.534;2023-03-01T05:55:44;15.43;;;7.53;;
53801;SDS011;39709;53.334;6.534;2023-03-01T05:58:16;17.50;;;8.50;;
53801;SDS011;39709;53.334;6.534;2023-03-01T06:00:43;18.15;;;8.10;;
53801;SDS011;39709;53.334;6.534;2023-03-01T06:03:14;15.85;;;7.60;;
53801;SDS011;39709;53.334;6.534;2023-03-01T06:05:40;17.10;;;9.00;;
53801;SDS011;39709;53.334;6.534;2023-03-01T06:08:06;18.03;;;7.90;;
53801;SDS011;39709;53.334;6.534;2023-03-01T06:10:34;18.73;;;8.50;;
53801;SDS011;39709;53.334;6.534;2023-03-01T06:13:00;20.75;;;8.77;;
53801;SDS011;39709;53.334;6.534;2023-03-01T06:15:25;18.87;;;8.23;;
53801;SDS011;39709;53.334;6.534;2023-03-01T06:17:52;16.75;;;8.23;;
53801;SDS011;39709;53.334;6.534;2023-03-01T06:20:22;14.98;;;7.38;;
53801;SDS011;39709;53.334;6.534;2023-03-01T06:22:49;16.30;;;7.47;;
53801;SDS011;39709;53.334;6.534;2023-03-01T06:25:16;17.23;;;7.80;;
53801;SDS011;39709;53.334;6.534;2023-03-01T06:27:43;13.20;;;7.00;;
53801;SDS011;39709;53.334;6.534;2023-03-01T06:30:11;15.20;;;7.55;;
53801;SDS011;39709;53.334;6.534;2023-03-01T06:32:39;13.65;;;6.43;;
53801;SDS011;39709;53.334;6.534;2023-03-01T06:35:12;16.17;;;7.55;;
53801;SDS011;39709;53.334;6.534;2023-03-01T06:37:40;16.27;;;8.10;;
53801;SDS011;39709;53.334;6.534;2023-03-01T06:40:06;19.33;;;8.95;;
53801;SDS011;39709;53.334;6.534;2023-03-01T06:42:43;17.05;;;8.30;;
53801;SDS011;39709;53.334;6.534;2023-03-01T06:45:14;16.25;;;7.60;;
53801;SDS011;39709;53.334;6.534;2023-03-01T06:47:42;17.67;;;8.25;;
53801;SDS011;39709;53.334;6.534;2023-03-01T06:50:08;16.80;;;7.90;;
53801;SDS011;39709;53.334;6.534;2023-03-01T06:52:34;18.92;;;8.73;;
53801;SDS011;39709;53.334;6.534;2023-03-01T06:55:00;19.13;;;9.00;;
53801;SDS011;39709;53.334;6.534;2023-03-01T06:57:26;20.10;;;9.50;;
53801;SDS011;39709;53.334;6.534;2023-03-01T06:59:51;20.50;;;9.90;;
53801;SDS011;39709;53.334;6.534;2023-03-01T07:02:17;20.20;;;9.95;;
53801;SDS011;39709;53.334;6.534;2023-03-01T07:04:43;21.77;;;9.75;;
53801;SDS011;39709;53.334;6.534;2023-03-01T07:07:09;21.88;;;10.25;;
53801;SDS011;39709;53.334;6.534;2023-03-01T07:09:35;23.03;;;10.63;;
53801;SDS011;39709;53.334;6.534;2023-03-01T07:12:01;21.98;;;9.88;;
53801;SDS011;39709;53.334;6.534;2023-03-01T07:14:27;27.00;;;10.65;;
53801;SDS011;39709;53.334;6.534;2023-03-01T07:16:53;22.03;;;9.53;;
53801;SDS011;39709;53.334;6.534;2023-03-01T07:19:19;22.30;;;9.45;;
53801;SDS011;39709;53.334;6.534;2023-03-01T07:21:45;21.15;;;9.77;;
53801;SDS011;39709;53.334;6.534;2023-03-01T07:24:11;24.73;;;10.80;;
53801;SDS011;39709;53.334;6.534;2023-03-01T07:26:37;21.83;;;10.83;;
53801;SDS011;39709;53.334;6.534;2023-03-01T07:29:03;20.70;;;10.95;;
53801;SDS011;39709;53.334;6.534;2023-03-01T07:31:31;22.50;;;11.27;;
53801;SDS011;39709;53.334;6.534;2023-03-01T07:33:57;23.33;;;11.55;;
53801;SDS011;39709;53.334;6.534;2023-03-01T07:36:22;23.70;;;12.47;;
53801;SDS011;39709;53.334;6.534;2023-03-01T07:38:48;26.55;;;12.80;;
53801;SDS011;39709;53.334;6.534;2023-03-01T07:41:14;28.27;;;14.10;;
53801;SDS011;39709;53.334;6.534;2023-03-01T07:43:40;28.23;;;12.63;;
53801;SDS011;39709;53.334;6.534;2023-03-01T07:46:06;26.48;;;13.27;;
53801;SDS011;39709;53.334;6.534;2023-03-01T07:48:32;38.20;;;18.67;;
53801;SDS011;39709;53.334;6.534;2023-03-01T07:51:01;49.58;;;20.67;;
53801;SDS011;39709;53.334;6.534;2023-03-01T07:53:28;90.45;;;46.97;;
53801;SDS011;39709;53.334;6.534;2023-03-01T07:56:11;37.95;;;18.67;;
53801;SDS011;39709;53.334;6.534;2023-03-01T07:58:39;36.88;;;16.65;;
53801;SDS011;39709;53.334;6.534;2023-03-01T08:01:07;35.97;;;16.47;;
53801;SDS011;39709;53.334;6.534;2023-03-01T08:03:35;40.80;;;20.52;;
53801;SDS011;39709;53.334;6.534;2023-03-01T08:06:03;33.83;;;16.52;;
53801;SDS011;39709;53.334;6.534;2023-03-01T08:08:30;33.72;;;16.23;;
53801;SDS011;39709;53.334;6.534;2023-03-01T08:10:57;38.50;;;17.40;;
53801;SDS011;39709;53.334;6.534;2023-03-01T08:13:23;37.67;;;18.63;;
53801;SDS011;39709;53.334;6.534;2023-03-01T08:15:49;42.92;;;20.75;;
53801;SDS011;39709;53.334;6.534;2023-03-01T08:18:18;43.43;;;20.30;;
53801;SDS011;39709;53.334;6.534;2023-03-01T08:20:45;39.40;;;19.37;;
53801;SDS011;39709;53.334;6.534;2023-03-01T08:23:11;42.38;;;19.00;;
53801;SDS011;39709;53.334;6.534;2023-03-01T08:25:36;39.97;;;19.10;;
53801;SDS011;39709;53.334;6.534;2023-03-01T08:28:03;39.80;;;18.57;;
53801;SDS011;39709;53.334;6.534;2023-03-01T08:30:28;41.83;;;19.25;;
53801;SDS011;39709;53.334;6.534;2023-03-01T08:32:54;42.97;;;19.80;;
53801;SDS011;39709;53.334;6.534;2023-03-01T08:35:20;51.33;;;21.70;;
53801;SDS011;39709;53.334;6.534;2023-03-01T08:37:47;49.63;;;22.45;;
53801;SDS011;39709;53.334;6.534;2023-03-01T08:40:13;43.95;;;20.80;;
53801;SDS011;39709;53.334;6.534;2023-03-01T08:42:42;52.80;;;24.37;;
53801;SDS011;39709;53.334;6.534;2023-03-01T08:45:08;51.17;;;25.45;;
53801;SDS011;39709;53.334;6.534;2023-03-01T08:47:35;56.55;;;26.67;;
53801;SDS011;39709;53.334;6.534;2023-03-01T08:50:01;52.72;;;23.95;;
53801;SDS011;39709;53.334;6.534;2023-03-01T08:52:28;55.33;;;25.25;;
53801;SDS011;39709;53.334;6.534;2023-03-01T08:54:55;52.37;;;24.97;;
53801;SDS011;39709;53.334;6.534;2023-03-01T08:57:21;55.65;;;23.10;;
53801;SDS011;39709;53.334;6.534;2023-03-01T08:59:47;54.53;;;23.98;;
53801;SDS011;39709;53.334;6.534;2023-03-01T09:02:14;59.50;;;26.17;;
53801;SDS011;39709;53.334;6.534;2023-03-01T09:04:42;57.27;;;26.17;;
53801;SDS011;39709;53.334;6.534;2023-03-01T09:07:08;56.10;;;26.38;;
53801;SDS011;39709;53.334;6.534;2023-03-01T09:09:34;62.55;;;26.95;;
53801;SDS011;39709;53.334;6.534;2023-03-01T09:12:00;59.75;;;25.75;;
53801;SDS011;39709;53.334;6.534;2023-03-01T09:14:26;59.13;;;26.55;;
53801;SDS011;39709;53.334;6.534;2023-03-01T09:16:52;59.50;;;24.90;;
53801;SDS011;39709;53.334;6.534;2023-03-01T09:19:18;54.13;;;24.92;;
53801;SDS011;39709;53.334;6.534;2023-03-01T09:21:43;53.97;;;24.57;;
53801;SDS011;39709;53.334;6.534;2023-03-01T09:24:17;55.17;;;28.20;;
53801;SDS011;39709;53.334;6.534;2023-03-01T09:26:44;55.72;;;24.50;;
53801;SDS011;39709;53.334;6.534;2023-03-01T09:29:13;51.87;;;24.20;;
53801;SDS011;39709;53.334;6.534;2023-03-01T09:31:39;48.88;;;23.38;;
53801;SDS011;39709;53.334;6.534;2023-03-01T09:34:06;43.97;;;21.77;;
53801;SDS011;39709;53.334;6.534;2023-03-01T09:36:32;45.03;;;21.50;;
53801;SDS011;39709;53.334;6.534;2023-03-01T09:38:58;42.28;;;19.88;;
53801;SDS011;39709;53.334;6.534;2023-03-01T09:47:00;38.88;;;18.95;;
53801;SDS011;39709;53.334;6.534;2023-03-01T09:49:36;41.08;;;19.33;;
53801;SDS011;39709;53.334;6.534;2023-03-01T09:52:19;39.08;;;18.33;;
53801;SDS011;39709;53.334;6.534;2023-03-01T09:54:50;41.20;;;18.53;;
53801;SDS011;39709;53.334;6.534;2023-03-01T10:03:28;33.30;;;16.98;;
53801;SDS011;39709;53.334;6.534;2023-03-01T10:06:19;30.83;;;15.75;;
53801;SDS011;39709;53.334;6.534;2023-03-01T10:11:30;34.00;;;16.13;;
53801;SDS011;39709;53.334;6.534;2023-03-01T10:14:02;36.28;;;16.63;;
53801;SDS011;39709;53.334;6.534;2023-03-01T10:16:55;39.70;;;17.40;;
53801;SDS011;39709;53.334;6.534;2023-03-01T10:19:41;31.65;;;15.38;;
53801;SDS011;39709;53.334;6.534;2023-03-01T10:22:15;24.93;;;10.97;;
53801;SDS011;39709;53.334;6.534;2023-03-01T10:24:46;37.90;;;18.42;;
53801;SDS011;39709;53.334;6.534;2023-03-01T10:27:23;39.03;;;18.40;;
53801;SDS011;39709;53.334;6.534;2023-03-01T10:32:42;35.58;;;17.52;;
53801;SDS011;39709;53.334;6.534;2023-03-01T10:35:28;45.10;;;19.60;;
53801;SDS011;39709;53.334;6.534;2023-03-01T10:40:29;23.67;;;10.60;;
53801;SDS011;39709;53.334;6.534;2023-03-01T10:42:59;36.20;;;16.15;;
53801;SDS011;39709;53.334;6.534;2023-03-01T10:48:03;25.87;;;11.53;;
53801;SDS011;39709;53.334;6.534;2023-03-01T10:50:44;18.25;;;7.15;;
53801;SDS011;39709;53.334;6.534;2023-03-01T10:58:24;9.30;;;2.47;;
53801;SDS011;39709;53.334;6.534;2023-03-01T11:00:51;8.90;;;3.70;;
53801;SDS011;39709;53.334;6.534;2023-03-01T11:03:42;8.23;;;1.27;;
53801;SDS011;39709;53.334;6.534;2023-03-01T11:08:37;2.00;;;0.47;;
53801;SDS011;39709;53.334;6.534;2023-03-01T11:14:07;21.20;;;9.88;;
53801;SDS011;39709;53.334;6.534;2023-03-01T11:16:41;11.00;;;4.82;;
53801;SDS011;39709;53.334;6.534;2023-03-01T11:21:47;4.60;;;1.35;;
53801;SDS011;39709;53.334;6.534;2023-03-01T11:24:26;12.70;;;4.70;;
53801;SDS011;39709;53.334;6.534;2023-03-01T11:26:59;2.57;;;0.57;;
53801;SDS011;39709;53.334;6.534;2023-03-01T11:32:38;3.38;;;0.85;;
53801;SDS011;39709;53.334;6.534;2023-03-01T11:35:42;6.05;;;1.90;;
53801;SDS011;39709;53.334;6.534;2023-03-01T11:38:16;4.38;;;0.90;;
53801;SDS011;39709;53.334;6.534;2023-03-01T11:40:58;12.57;;;5.47;;
53801;SDS011;39709;53.334;6.534;2023-03-01T11:58:07;5.00;;;0.95;;
53801;SDS011;39709;53.334;6.534;2023-03-01T12:00:44;6.85;;;2.45;;
53801;SDS011;39709;53.334;6.534;2023-03-01T12:04:11;13.20;;;4.68;;
53801;SDS011;39709;53.334;6.534;2023-03-01T12:07:10;2.97;;;0.98;;
53801;SDS011;39709;53.334;6.534;2023-03-01T12:10:23;14.87;;;5.70;;
53801;SDS011;39709;53.334;6.534;2023-03-01T12:12:56;21.63;;;9.07;;
53801;SDS011;39709;53.334;6.534;2023-03-01T12:15:32;3.65;;;1.02;;
53801;SDS011;39709;53.334;6.534;2023-03-01T12:18:21;2.60;;;0.57;;
53801;SDS011;39709;53.334;6.534;2023-03-01T12:26:28;3.13;;;0.70;;
53801;SDS011;39709;53.334;6.534;2023-03-01T12:47:52;1.70;;;0.43;;
53801;SDS011;39709;53.334;6.534;2023-03-01T12:51:14;8.60;;;3.30;;
53801;SDS011;39709;53.334;6.534;2023-03-01T12:53:24;2.15;;;0.50;;
53801;SDS011;39709;53.334;6.534;2023-03-01T12:56:01;2.42;;;0.55;;
53801;SDS011;39709;53.334;6.534;2023-03-01T13:01:15;2.58;;;0.43;;
53801;SDS011;39709;53.334;6.534;2023-03-01T13:17:55;2.93;;;0.70;;
53801;SDS011;39709;53.334;6.534;2023-03-01T13:30:57;1.65;;;0.38;;
53801;SDS011;39709;53.334;6.534;2023-03-01T13:35:53;2.42;;;0.40;;
53801;SDS011;39709;53.334;6.534;2023-03-01T13:41:11;2.40;;;0.60;;
53801;SDS011;39709;53.334;6.534;2023-03-01T13:43:40;2.17;;;0.40;;
53801;SDS011;39709;53.334;6.534;2023-03-01T13:46:17;2.50;;;0.60;;
53801;SDS011;39709;53.334;6.534;2023-03-01T13:48:48;1.95;;;0.50;;
53801;SDS011;39709;53.334;6.534;2023-03-01T13:51:20;3.43;;;0.80;;
53801;SDS011;39709;53.334;6.534;2023-03-01T13:53:52;2.35;;;0.40;;
53801;SDS011;39709;53.334;6.534;2023-03-01T13:56:33;1.70;;;0.43;;
53801;SDS011;39709;53.334;6.534;2023-03-01T13:59:04;10.82;;;5.10;;
53801;SDS011;39709;53.334;6.534;2023-03-01T14:01:37;2.90;;;0.63;;
53801;SDS011;39709;53.334;6.534;2023-03-01T14:04:14;3.50;;;0.80;;
53801;SDS011;39709;53.334;6.534;2023-03-01T14:06:47;3.05;;;0.60;;
53801;SDS011;39709;53.334;6.534;2023-03-01T14:09:17;2.77;;;0.60;;
53801;SDS011;39709;53.334;6.534;2023-03-01T14:20:08;2.67;;;0.57;;
53801;SDS011;39709;53.334;6.534;2023-03-01T14:22:44;3.10;;;0.57;;
53801;SDS011;39709;53.334;6.534;2023-03-01T14:28:02;3.92;;;1.05;;
53801;SDS011;39709;53.334;6.534;2023-03-01T14:30:49;2.28;;;0.63;;
53801;SDS011;39709;53.334;6.534;2023-03-01T14:33:23;8.52;;;2.72;;
53801;SDS011;39709;53.334;6.534;2023-03-01T14:36:33;2.17;;;0.43;;
53801;SDS011;39709;53.334;6.534;2023-03-01T14:38:39;7.28;;;2.60;;
53801;SDS011;39709;53.334;6.534;2023-03-01T14:43:43;3.17;;;0.68;;
53801;SDS011;39709;53.334;6.534;2023-03-01T14:46:21;2.65;;;0.80;;
53801;SDS011;39709;53.334;6.534;2023-03-01T14:48:50;1.83;;;0.40;;
53801;SDS011;39709;53.334;6.534;2023-03-01T14:51:26;1.63;;;0.40;;
53801;SDS011;39709;53.334;6.534;2023-03-01T14:53:51;6.55;;;3.10;;
53801;SDS011;39709;53.334;6.534;2023-03-01T14:56:18;5.15;;;1.48;;
53801;SDS011;39709;53.334;6.534;2023-03-01T14:58:44;22.20;;;8.23;;
53801;SDS011;39709;53.334;6.534;2023-03-01T15:01:16;19.30;;;8.70;;
53801;SDS011;39709;53.334;6.534;2023-03-01T15:03:43;14.02;;;6.60;;
53801;SDS011;39709;53.334;6.534;2023-03-01T15:06:10;22.33;;;10.13;;
53801;SDS011;39709;53.334;6.534;2023-03-01T15:08:41;15.68;;;7.10;;
53801;SDS011;39709;53.334;6.534;2023-03-01T15:13:49;23.48;;;10.15;;
53801;SDS011;39709;53.334;6.534;2023-03-01T15:16:17;19.08;;;9.02;;
53801;SDS011;39709;53.334;6.534;2023-03-01T15:18:58;22.15;;;11.70;;
53801;SDS011;39709;53.334;6.534;2023-03-01T15:21:33;10.98;;;5.35;;
53801;SDS011;39709;53.334;6.534;2023-03-01T15:26:41;20.48;;;9.95;;
53801;SDS011;39709;53.334;6.534;2023-03-01T15:29:16;21.92;;;12.90;;
53801;SDS011;39709;53.334;6.534;2023-03-01T15:31:43;10.85;;;4.55;;
53801;SDS011;39709;53.334;6.534;2023-03-01T15:34:32;23.25;;;12.23;;
53801;SDS011;39709;53.334;6.534;2023-03-01T15:37:02;20.63;;;10.73;;
53801;SDS011;39709;53.334;6.534;2023-03-01T15:41:56;23.85;;;12.45;;
53801;SDS011;39709;53.334;6.534;2023-03-01T15:44:26;16.50;;;8.02;;
53801;SDS011;39709;53.334;6.534;2023-03-01T15:46:54;19.35;;;9.60;;
53801;SDS011;39709;53.334;6.534;2023-03-01T15:49:30;24.57;;;11.53;;
53801;SDS011;39709;53.334;6.534;2023-03-01T15:52:04;17.20;;;7.25;;
53801;SDS011;39709;53.334;6.534;2023-03-01T15:54:34;24.92;;;11.93;;
53801;SDS011;39709;53.334;6.534;2023-03-01T15:57:00;22.25;;;12.10;;
53801;SDS011;39709;53.334;6.534;2023-03-01T15:59:26;23.73;;;12.43;;
53801;SDS011;39709;53.334;6.534;2023-03-01T16:01:51;24.17;;;13.30;;
53801;SDS011;39709;53.334;6.534;2023-03-01T16:04:18;21.80;;;12.57;;
53801;SDS011;39709;53.334;6.534;2023-03-01T16:06:48;18.85;;;8.07;;
53801;SDS011;39709;53.334;6.534;2023-03-01T16:09:19;19.05;;;9.95;;
53801;SDS011;39709;53.334;6.534;2023-03-01T16:11:48;15.27;;;8.20;;
53801;SDS011;39709;53.334;6.534;2023-03-01T16:14:15;17.48;;;7.90;;
53801;SDS011;39709;53.334;6.534;2023-03-01T16:16:41;14.85;;;7.85;;
53801;SDS011;39709;53.334;6.534;2023-03-01T16:19:07;20.98;;;9.10;;
53801;SDS011;39709;53.334;6.534;2023-03-01T16:21:33;14.83;;;7.50;;
53801;SDS011;39709;53.334;6.534;2023-03-01T16:23:59;14.85;;;7.55;;
53801;SDS011;39709;53.334;6.534;2023-03-01T16:26:25;17.00;;;8.73;;
53801;SDS011;39709;53.334;6.534;2023-03-01T16:28:54;13.98;;;6.22;;
53801;SDS011;39709;53.334;6.534;2023-03-01T16:31:21;23.15;;;9.25;;
53801;SDS011;39709;53.334;6.534;2023-03-01T16:33:48;18.13;;;8.85;;
53801;SDS011;39709;53.334;6.534;2023-03-01T16:36:17;13.20;;;6.53;;
53801;SDS011;39709;53.334;6.534;2023-03-01T16:38:44;16.88;;;7.15;;
53801;SDS011;39709;53.334;6.534;2023-03-01T16:41:11;15.02;;;7.45;;
53801;SDS011;39709;53.334;6.534;2023-03-01T16:43:38;13.45;;;7.00;;
53801;SDS011;39709;53.334;6.534;2023-03-01T16:46:12;16.48;;;8.80;;
53801;SDS011;39709;53.334;6.534;2023-03-01T16:48:40;16.97;;;7.90;;
53801;SDS011;39709;53.334;6.534;2023-03-01T16:51:06;18.13;;;7.50;;
53801;SDS011;39709;53.334;6.534;2023-03-01T16:53:33;22.30;;;11.07;;
53801;SDS011;39709;53.334;6.534;2023-03-01T16:56:01;20.15;;;11.00;;
53801;SDS011;39709;53.334;6.534;2023-03-01T16:58:28;19.70;;;11.05;;
53801;SDS011;39709;53.334;6.534;2023-03-01T17:00:54;19.70;;;11.30;;
53801;SDS011;39709;53.334;6.534;2023-03-01T17:03:21;20.42;;;11.60;;
53801;SDS011;39709;53.334;6.534;2023-03-01T17:05:49;22.08;;;11.68;;